createdAt,value
2022-09-12T00:11:42.181Z,1019
2022-09-12T00:26:38.129Z,1018.9
2022-09-12T00:41:34.101Z,1018.8
2022-09-12T00:56:29.938Z,1018.7
2022-09-12T01:11:26.059Z,1018.6
2022-09-12T01:26:22.426Z,1018.5
2022-09-12T01:41:18.908Z,1018.4
2022-09-12T01:56:15.119Z,1018.4
2022-09-12T02:11:10.962Z,1018.3
2022-09-12T02:26:07.345Z,1018.3
2022-09-12T02:41:03.412Z,1018.2
2022-09-12T02:55:59.269Z,1018
2022-09-12T03:10:55.122Z,1018
2022-09-12T03:25:51.490Z,1018.1
2022-09-12T03:40:51.445Z,1018.1
2022-09-12T03:55:44.039Z,1018.1
2022-09-12T04:10:40.012Z,1018.1
2022-09-12T04:40:32.065Z,1018
2022-09-12T04:55:28.295Z,1017.8
2022-09-12T05:10:24.574Z,1017.6
2022-09-12T05:40:17.888Z,1017.8
2022-09-12T05:55:14.749Z,1017.8
2022-09-12T06:10:11.430Z,1017.9
2022-09-12T06:25:07.647Z,1017.9
2022-09-12T06:40:04.073Z,1017.9
2022-09-12T07:09:56.708Z,1017.9
2022-09-12T07:24:53.109Z,1017.8
2022-09-12T07:39:50.295Z,1017.8
2022-09-12T07:54:46.904Z,1017.8
2022-09-12T08:09:43.539Z,1017.8
2022-09-12T08:24:40.257Z,1017.7
2022-09-12T09:09:30.226Z,1017.6
2022-09-12T09:24:26.347Z,1017.4
2022-09-12T09:39:22.926Z,1017.3
2022-09-12T09:54:20.193Z,1017.1
2022-09-12T10:09:17.567Z,1016.9
2022-09-12T10:24:14.203Z,1016.8
2022-09-12T10:39:11.137Z,1016.7
2022-09-12T10:54:07.969Z,1016.6
2022-09-12T11:09:04.997Z,1016.4
2022-09-12T11:24:01.457Z,1016.3
2022-09-12T11:38:58.423Z,1016.1
2022-09-12T11:53:54.382Z,1015.9
2022-09-12T12:08:51.132Z,1015.8
2022-09-12T12:23:47.702Z,1015.7
2022-09-12T12:38:43.521Z,1015.5
2022-09-12T12:53:39.569Z,1015.3
2022-09-12T13:08:35.457Z,1015.1
2022-09-12T13:23:31.509Z,1014.9
2022-09-12T13:38:27.477Z,1014.7
2022-09-12T13:53:23.173Z,1014.5
2022-09-12T14:08:19.206Z,1014.4
2022-09-12T14:23:15.219Z,1014.3
2022-09-12T14:38:11.189Z,1014.3
2022-09-12T14:53:07.056Z,1014.1
2022-09-12T15:08:03.540Z,1013.9
2022-09-12T15:22:59.331Z,1013.7
2022-09-12T15:37:55.363Z,1013.7
2022-09-12T15:52:50.977Z,1013.7
2022-09-12T16:07:47.433Z,1013.6
2022-09-12T16:22:43.156Z,1013.5
2022-09-12T16:37:39.555Z,1013.3
2022-09-12T16:52:35.729Z,1013.3
2022-09-12T17:07:31.833Z,1013
2022-09-12T17:22:27.944Z,1013.2
2022-09-12T17:37:23.866Z,1013.1
2022-09-12T17:52:19.915Z,1013.2
2022-09-12T18:07:15.444Z,1013.3
2022-09-12T18:22:11.027Z,1013.4
2022-09-12T18:37:06.735Z,1013.3
2022-09-12T18:52:02.443Z,1013.2
2022-09-12T19:06:58.278Z,1013.3
2022-09-12T19:21:54.651Z,1013.3
2022-09-12T19:36:50.354Z,1013.2
2022-09-12T19:51:46.429Z,1013.1
2022-09-12T20:06:42.170Z,1013
2022-09-12T20:21:37.561Z,1013.1
2022-09-12T20:36:33.475Z,1013.1
2022-09-12T20:51:30.057Z,1012.9
2022-09-12T22:06:11.099Z,1012.6
2022-09-12T22:21:07.106Z,1012.7
2022-09-12T22:36:03.699Z,1012.7
2022-09-12T22:50:59.669Z,1012.6
2022-09-12T23:05:55.282Z,1012.8
2022-09-12T23:20:51.513Z,1012.6
2022-09-12T23:35:47.571Z,1012.9
2022-09-12T23:50:43.474Z,1012.7
